createdAt,value
2019-01-24T00:01:21.328Z,1.90
2019-01-24T00:03:51.447Z,1.90
2019-01-24T00:06:22.058Z,2.00
2019-01-24T00:08:52.865Z,2.00
2019-01-24T00:11:22.888Z,3.40
2019-01-24T00:13:52.800Z,2.10
2019-01-24T00:16:22.927Z,2.10
2019-01-24T00:18:53.440Z,2.00
2019-01-24T00:21:24.959Z,2.00
2019-01-24T00:23:55.152Z,2.10
2019-01-24T00:26:25.152Z,2.20
2019-01-24T00:28:55.400Z,2.30
2019-01-24T00:31:25.784Z,2.30
2019-01-24T00:33:57.343Z,2.40
2019-01-24T00:36:27.846Z,2.30
2019-01-24T00:38:57.878Z,2.10
2019-01-24T00:41:27.983Z,2.20
2019-01-24T00:43:58.377Z,2.10
2019-01-24T00:46:28.777Z,2.20
2019-01-24T00:48:58.480Z,2.00
2019-01-24T00:51:33.713Z,2.00
2019-01-24T00:54:04.480Z,1.90
2019-01-24T00:56:34.645Z,1.90
2019-01-24T00:59:06.925Z,2.10
2019-01-24T01:01:39.644Z,1.90
2019-01-24T01:04:11.270Z,1.60
2019-01-24T01:06:41.402Z,1.50
2019-01-24T01:09:11.978Z,1.60
2019-01-24T01:11:41.979Z,1.50
2019-01-24T01:14:12.114Z,1.50
2019-01-24T01:16:42.566Z,1.50
2019-01-24T01:19:12.548Z,2.10
2019-01-24T01:21:42.860Z,1.60
2019-01-24T01:24:13.380Z,1.60
2019-01-24T01:26:43.349Z,1.70
2019-01-24T01:29:13.588Z,1.60
2019-01-24T01:31:44.126Z,1.60
2019-01-24T01:34:14.463Z,1.60
2019-01-24T01:36:45.013Z,1.00
2019-01-24T01:39:15.618Z,1.60
2019-01-24T01:41:45.953Z,1.50
2019-01-24T01:44:16.126Z,1.60
2019-01-24T01:46:49.126Z,1.60
2019-01-24T01:49:19.723Z,1.60
2019-01-24T01:51:50.020Z,1.60
2019-01-24T01:54:20.568Z,1.70
2019-01-24T01:56:50.648Z,1.60
2019-01-24T01:59:20.579Z,1.70
2019-01-24T02:01:50.722Z,1.60
2019-01-24T02:04:20.938Z,1.60
2019-01-24T02:06:50.785Z,1.60
2019-01-24T02:09:21.125Z,1.60
2019-01-24T02:11:51.904Z,1.70
2019-01-24T02:14:22.765Z,1.70
2019-01-24T02:16:52.808Z,1.70
2019-01-24T02:19:22.836Z,3.10
2019-01-24T02:21:53.412Z,1.80
2019-01-24T02:24:23.491Z,1.80
2019-01-24T02:26:54.057Z,1.90
2019-01-24T02:29:24.460Z,2.00
2019-01-24T02:31:54.696Z,2.10
2019-01-24T02:34:25.361Z,1.90
2019-01-24T02:36:55.422Z,1.90
2019-01-24T02:39:25.987Z,1.90
2019-01-24T02:41:55.801Z,1.90
2019-01-24T02:44:25.710Z,2.00
2019-01-24T02:46:55.809Z,2.00
2019-01-24T02:49:25.980Z,2.00
2019-01-24T02:51:56.097Z,2.00
2019-01-24T02:54:26.273Z,2.10
2019-01-24T02:56:58.517Z,2.20
2019-01-24T02:59:28.544Z,2.30
2019-01-24T03:01:58.595Z,2.30
2019-01-24T03:04:28.757Z,2.30
2019-01-24T03:06:58.747Z,2.30
2019-01-24T03:09:28.938Z,2.20
2019-01-24T03:11:59.010Z,2.20
2019-01-24T03:14:28.787Z,2.30
2019-01-24T03:16:58.963Z,2.30
2019-01-24T03:19:29.123Z,2.40
2019-01-24T03:21:59.070Z,2.40
2019-01-24T03:24:29.224Z,2.50
2019-01-24T03:26:58.985Z,2.60
2019-01-24T03:29:29.085Z,2.60
2019-01-24T03:31:58.994Z,2.70
2019-01-24T03:34:29.531Z,2.60
2019-01-24T03:36:59.589Z,2.60
2019-01-24T03:39:29.559Z,2.50
2019-01-24T03:41:59.374Z,2.50
2019-01-24T03:44:29.837Z,2.50
2019-01-24T03:47:00.545Z,2.50
2019-01-24T03:49:30.532Z,2.50
2019-01-24T03:52:00.611Z,2.50
2019-01-24T03:54:30.653Z,2.50
2019-01-24T03:57:00.735Z,2.50
2019-01-24T03:59:30.913Z,2.60
2019-01-24T04:02:03.006Z,2.60
2019-01-24T04:04:33.031Z,2.60
2019-01-24T04:07:03.038Z,2.70
2019-01-24T04:09:34.897Z,2.70
2019-01-24T04:12:05.160Z,2.80
2019-01-24T04:14:35.156Z,2.60
2019-01-24T04:17:05.382Z,2.60
2019-01-24T04:19:35.434Z,2.90
2019-01-24T04:22:05.459Z,3.00
2019-01-24T04:24:37.377Z,3.00
2019-01-24T04:27:08.273Z,2.90
2019-01-24T04:29:38.438Z,3.10
2019-01-24T04:32:08.572Z,3.10
2019-01-24T04:34:39.051Z,3.00
2019-01-24T04:37:09.116Z,3.00
2019-01-24T04:39:39.166Z,2.90
2019-01-24T04:42:09.282Z,2.80
2019-01-24T04:44:39.021Z,2.70
2019-01-24T04:47:09.016Z,2.50
2019-01-24T04:49:39.187Z,2.50
2019-01-24T04:52:09.188Z,2.50
2019-01-24T04:54:39.205Z,2.50
2019-01-24T04:57:08.928Z,2.50
2019-01-24T04:59:38.653Z,2.40
2019-01-24T05:02:08.345Z,2.50
2019-01-24T05:04:38.112Z,2.60
2019-01-24T05:07:07.963Z,2.70
2019-01-24T05:09:38.014Z,2.80
2019-01-24T05:12:07.677Z,2.80
2019-01-24T05:14:37.368Z,3.10
2019-01-24T05:17:07.620Z,3.10
2019-01-24T05:19:37.306Z,3.10
2019-01-24T05:22:07.077Z,3.10
2019-01-24T05:24:36.742Z,3.00
2019-01-24T05:27:06.415Z,4.00
2019-01-24T05:29:36.073Z,2.90
2019-01-24T05:32:06.159Z,2.80
2019-01-24T05:34:37.213Z,2.70
2019-01-24T05:37:06.940Z,2.70
2019-01-24T05:39:36.620Z,2.60
2019-01-24T05:42:08.585Z,2.70
2019-01-24T05:44:38.402Z,2.70
2019-01-24T05:47:08.198Z,2.90
2019-01-24T05:49:38.049Z,3.00
2019-01-24T05:52:07.820Z,3.00
2019-01-24T05:54:37.807Z,3.10
2019-01-24T05:57:07.956Z,3.20
2019-01-24T05:59:37.908Z,3.20
2019-01-24T06:02:07.723Z,3.20
2019-01-24T06:04:37.566Z,3.10
2019-01-24T06:07:07.289Z,3.00
2019-01-24T06:09:38.161Z,2.90
2019-01-24T06:12:07.887Z,2.90
2019-01-24T06:14:39.730Z,2.90
2019-01-24T06:17:09.475Z,2.90
2019-01-24T06:19:39.172Z,2.90
2019-01-24T06:22:09.018Z,2.90
2019-01-24T06:24:39.972Z,2.90
2019-01-24T06:27:12.192Z,2.90
2019-01-24T06:29:41.903Z,3.00
2019-01-24T06:32:12.508Z,3.00
2019-01-24T06:34:42.253Z,3.00
2019-01-24T06:37:11.997Z,3.00
2019-01-24T06:39:41.826Z,3.00
2019-01-24T06:42:11.469Z,3.00
2019-01-24T06:44:41.201Z,3.00
2019-01-24T06:47:10.906Z,3.10
2019-01-24T06:49:40.564Z,3.10
2019-01-24T06:52:10.591Z,3.10
2019-01-24T06:54:40.356Z,3.10
2019-01-24T06:57:10.063Z,3.10
2019-01-24T06:59:39.772Z,3.10
2019-01-24T07:02:17.419Z,3.10
2019-01-24T07:04:47.681Z,3.10
2019-01-24T07:07:18.116Z,3.10
2019-01-24T07:09:48.645Z,3.10
2019-01-24T07:12:18.818Z,3.00
2019-01-24T07:14:49.039Z,3.00
2019-01-24T07:17:25.156Z,2.90
2019-01-24T07:20:12.452Z,2.90
2019-01-24T07:22:43.571Z,2.90
2019-01-24T07:25:20.514Z,3.00
2019-01-24T07:27:51.137Z,3.00
2019-01-24T07:30:22.126Z,3.10
2019-01-24T07:32:53.323Z,3.10
2019-01-24T07:35:26.494Z,3.10
2019-01-24T07:37:57.429Z,3.20
2019-01-24T07:40:28.104Z,3.10
2019-01-24T07:42:58.049Z,3.10
2019-01-24T07:45:39.813Z,3.20
2019-01-24T07:48:11.517Z,3.20
2019-01-24T07:50:42.199Z,3.30
2019-01-24T07:53:12.076Z,3.30
2019-01-24T07:55:43.218Z,3.30
2019-01-24T07:58:13.367Z,3.40
2019-01-24T08:00:43.557Z,3.40
2019-01-24T08:03:13.791Z,3.50
2019-01-24T08:05:43.595Z,3.60
2019-01-24T08:08:13.662Z,3.60
2019-01-24T08:10:44.732Z,3.50
2019-01-24T08:13:14.763Z,3.60
2019-01-24T08:15:45.809Z,4.00
2019-01-24T08:18:16.474Z,3.60
2019-01-24T08:20:46.839Z,3.60
2019-01-24T08:23:17.148Z,3.50
2019-01-24T08:25:47.797Z,3.50
2019-01-24T08:28:17.835Z,3.50
2019-01-24T08:30:47.977Z,3.50
2019-01-24T08:33:20.604Z,3.60
2019-01-24T08:35:50.935Z,3.50
2019-01-24T08:38:20.547Z,3.70
2019-01-24T08:40:50.228Z,3.90
2019-01-24T08:43:19.903Z,4.00
2019-01-24T08:45:49.610Z,4.20
2019-01-24T08:48:19.335Z,4.20
2019-01-24T08:50:50.800Z,4.20
2019-01-24T08:53:22.047Z,4.30
2019-01-24T08:55:56.447Z,4.20
2019-01-24T08:58:26.123Z,4.20
2019-01-24T09:00:55.872Z,4.20
2019-01-24T09:03:25.579Z,4.30
2019-01-24T09:05:55.617Z,4.30
2019-01-24T09:08:34.160Z,4.50
2019-01-24T09:11:04.269Z,4.60
2019-01-24T09:13:34.030Z,4.60
2019-01-24T09:16:04.557Z,4.60
2019-01-24T09:18:34.240Z,4.60
2019-01-24T09:21:04.464Z,4.70
2019-01-24T09:23:34.564Z,4.80
2019-01-24T09:26:05.084Z,4.90
2019-01-24T09:28:34.745Z,4.90
2019-01-24T09:31:04.530Z,4.90
2019-01-24T09:33:34.184Z,5.00
2019-01-24T09:36:03.896Z,5.00
2019-01-24T09:38:34.061Z,5.00
2019-01-24T09:41:03.764Z,5.00
2019-01-24T09:43:33.797Z,5.00
2019-01-24T09:46:03.920Z,5.00
2019-01-24T09:48:33.663Z,5.40
2019-01-24T09:51:05.334Z,5.20
2019-01-24T09:53:34.962Z,5.30
2019-01-24T09:56:04.941Z,5.30
2019-01-24T09:58:34.634Z,5.50
2019-01-24T10:01:04.312Z,5.40
2019-01-24T10:03:33.957Z,5.40
2019-01-24T10:06:03.601Z,5.40
2019-01-24T10:08:33.332Z,5.30
2019-01-24T10:11:03.007Z,5.30
2019-01-24T10:13:32.741Z,5.30
2019-01-24T10:16:02.475Z,5.50
2019-01-24T10:18:32.184Z,5.40
2019-01-24T10:21:02.364Z,5.40
2019-01-24T10:23:32.014Z,5.40
2019-01-24T10:26:02.625Z,5.30
2019-01-24T10:28:32.488Z,5.30
2019-01-24T10:31:02.888Z,5.40
2019-01-24T10:33:32.901Z,5.30
2019-01-24T10:36:02.820Z,5.40
2019-01-24T10:38:32.547Z,5.50
2019-01-24T10:41:02.437Z,5.60
2019-01-24T10:43:32.567Z,5.60
2019-01-24T10:46:02.249Z,5.60
2019-01-24T10:48:32.490Z,5.70
2019-01-24T10:51:02.154Z,5.80
2019-01-24T10:53:32.284Z,5.80
2019-01-24T10:56:02.052Z,5.90
2019-01-24T10:58:31.836Z,6.00
2019-01-24T11:01:03.127Z,6.10
2019-01-24T11:03:33.240Z,6.00
2019-01-24T11:06:02.949Z,6.10
2019-01-24T11:08:32.614Z,6.10
2019-01-24T11:11:03.308Z,6.20
2019-01-24T11:13:33.580Z,6.20
2019-01-24T11:16:03.660Z,6.30
2019-01-24T11:18:34.170Z,6.30
2019-01-24T11:21:04.977Z,6.40
2019-01-24T11:23:34.627Z,6.40
2019-01-24T11:26:05.482Z,6.40
2019-01-24T11:28:36.268Z,6.30
2019-01-24T11:31:06.319Z,6.20
2019-01-24T11:33:36.409Z,6.20
2019-01-24T11:36:06.913Z,6.20
2019-01-24T11:38:37.133Z,6.20
2019-01-24T11:41:07.877Z,6.20
2019-01-24T11:43:37.795Z,6.30
2019-01-24T11:46:08.031Z,6.30
2019-01-24T11:48:37.724Z,6.40
2019-01-24T11:51:10.099Z,6.50
2019-01-24T11:53:39.842Z,6.70
2019-01-24T11:56:09.520Z,6.70
2019-01-24T11:58:39.316Z,6.80
2019-01-24T12:01:09.027Z,6.80
2019-01-24T12:03:38.888Z,6.80
2019-01-24T12:06:08.647Z,6.80
2019-01-24T12:08:38.356Z,6.70
2019-01-24T12:11:08.127Z,6.80
2019-01-24T12:13:38.218Z,6.80
2019-01-24T12:16:07.913Z,6.70
2019-01-24T12:18:38.744Z,6.70
2019-01-24T12:21:08.457Z,6.70
2019-01-24T12:23:38.232Z,6.60
2019-01-24T12:26:08.816Z,6.60
2019-01-24T12:28:38.790Z,6.60
2019-01-24T12:31:08.851Z,6.80
2019-01-24T12:33:38.560Z,6.80
2019-01-24T12:36:08.530Z,7.00
2019-01-24T12:38:39.107Z,6.90
2019-01-24T12:41:08.837Z,7.10
2019-01-24T12:43:38.548Z,8.10
2019-01-24T12:46:08.547Z,7.10
2019-01-24T12:48:38.297Z,7.20
2019-01-24T12:51:08.001Z,7.20
2019-01-24T12:53:37.665Z,7.20
2019-01-24T12:56:07.350Z,7.30
2019-01-24T12:58:37.024Z,7.20
2019-01-24T13:01:07.273Z,7.20
2019-01-24T13:03:36.911Z,7.20
2019-01-24T13:06:06.743Z,7.10
2019-01-24T13:08:38.981Z,7.20
2019-01-24T13:11:08.700Z,7.20
2019-01-24T13:13:38.482Z,7.20
2019-01-24T13:16:31.158Z,7.30
2019-01-24T13:19:01.308Z,7.40
2019-01-24T13:21:32.887Z,7.50
2019-01-24T13:24:02.719Z,7.60
2019-01-24T13:26:34.759Z,7.50
2019-01-24T13:29:04.961Z,7.50
2019-01-24T13:32:00.895Z,7.50
2019-01-24T13:34:32.869Z,7.50
2019-01-24T13:37:04.049Z,7.50
2019-01-24T13:39:51.535Z,7.50
2019-01-24T13:42:21.708Z,7.50
2019-01-24T13:44:52.101Z,7.50
2019-01-24T13:47:24.692Z,7.60
2019-01-24T13:49:54.484Z,7.60
2019-01-24T13:52:28.038Z,7.60
2019-01-24T13:54:58.317Z,7.60
2019-01-24T13:57:28.320Z,7.70
2019-01-24T13:59:58.393Z,7.70
2019-01-24T14:02:31.369Z,7.70
2019-01-24T14:05:02.463Z,7.80
2019-01-24T14:07:33.095Z,7.80
2019-01-24T14:10:03.067Z,7.90
2019-01-24T14:13:03.474Z,7.80
2019-01-24T14:15:42.666Z,7.80
2019-01-24T14:18:19.241Z,7.80
2019-01-24T14:20:51.175Z,7.70
2019-01-24T14:23:21.332Z,7.70
2019-01-24T14:25:58.362Z,7.60
2019-01-24T14:28:28.164Z,7.70
2019-01-24T14:30:57.864Z,7.80
2019-01-24T14:33:27.571Z,7.80
2019-01-24T14:35:58.728Z,7.90
2019-01-24T14:38:28.538Z,7.90
2019-01-24T14:41:00.028Z,7.90
2019-01-24T14:44:09.329Z,7.80
2019-01-24T14:46:39.666Z,7.80
2019-01-24T14:49:26.910Z,7.90
2019-01-24T14:51:53.861Z,7.80
2019-01-24T14:54:24.383Z,7.80
2019-01-24T14:56:55.103Z,7.80
2019-01-24T14:59:25.463Z,7.80
2019-01-24T15:01:56.578Z,7.70
2019-01-24T15:04:29.744Z,7.70
2019-01-24T15:06:59.886Z,7.70
2019-01-24T15:09:29.975Z,7.70
2019-01-24T15:12:00.655Z,7.70
2019-01-24T15:14:30.638Z,7.70
2019-01-24T15:17:00.358Z,7.70
2019-01-24T15:19:31.372Z,7.70
2019-01-24T15:22:01.545Z,7.60
2019-01-24T15:24:31.249Z,7.60
2019-01-24T15:27:01.491Z,7.70
2019-01-24T15:29:31.384Z,7.60
2019-01-24T15:32:01.076Z,7.60
2019-01-24T15:34:31.252Z,7.50
2019-01-24T15:37:02.338Z,7.60
2019-01-24T15:39:32.055Z,7.60
2019-01-24T15:42:01.911Z,7.60
2019-01-24T15:44:32.235Z,7.60
2019-01-24T15:47:04.226Z,7.60
2019-01-24T15:49:34.004Z,7.70
2019-01-24T15:52:04.876Z,7.70
2019-01-24T15:54:34.732Z,7.60
2019-01-24T15:57:04.668Z,7.60
2019-01-24T15:59:34.406Z,7.50
2019-01-24T16:02:06.458Z,7.50
2019-01-24T16:04:36.706Z,7.50
2019-01-24T16:07:06.809Z,7.50
2019-01-24T16:09:37.101Z,7.40
2019-01-24T16:12:11.073Z,7.40
2019-01-24T16:14:42.163Z,7.50
2019-01-24T16:17:11.904Z,7.50
2019-01-24T16:19:41.988Z,7.40
2019-01-24T16:22:11.690Z,7.40
2019-01-24T16:24:41.834Z,7.50
2019-01-24T16:27:13.999Z,7.50
2019-01-24T16:29:43.721Z,7.40
2019-01-24T16:32:13.401Z,7.40
2019-01-24T16:34:43.518Z,7.30
2019-01-24T16:37:13.950Z,7.30
2019-01-24T16:39:43.592Z,7.20
2019-01-24T16:42:13.282Z,7.10
2019-01-24T16:44:43.248Z,7.10
2019-01-24T16:47:12.928Z,7.20
2019-01-24T16:49:42.728Z,7.20
2019-01-24T16:52:12.537Z,7.10
2019-01-24T16:54:42.297Z,7.00
2019-01-24T16:57:12.011Z,7.00
2019-01-24T16:59:42.548Z,6.90
2019-01-24T17:02:15.548Z,7.00
2019-01-24T17:04:45.384Z,7.00
2019-01-24T17:07:15.077Z,7.50
2019-01-24T17:09:45.468Z,7.00
2019-01-24T17:12:17.362Z,7.00
2019-01-24T17:14:47.060Z,6.90
2019-01-24T17:17:16.795Z,6.90
2019-01-24T17:19:46.688Z,6.80
2019-01-24T17:22:16.924Z,6.80
2019-01-24T17:24:46.580Z,6.90
2019-01-24T17:27:16.239Z,6.90
2019-01-24T17:29:48.641Z,6.90
2019-01-24T17:32:18.716Z,6.90
2019-01-24T17:34:49.030Z,6.90
2019-01-24T17:37:19.242Z,6.90
2019-01-24T17:39:48.959Z,6.90
2019-01-24T17:42:18.599Z,6.90
2019-01-24T17:44:48.445Z,7.20
2019-01-24T17:47:18.151Z,8.10
2019-01-24T17:49:48.776Z,6.90
2019-01-24T17:52:18.564Z,6.80
2019-01-24T17:54:50.473Z,6.80
2019-01-24T17:57:21.045Z,6.80
2019-01-24T17:59:50.995Z,6.90
2019-01-24T18:02:21.076Z,6.90
2019-01-24T18:04:52.107Z,6.90
2019-01-24T18:07:21.832Z,6.90
2019-01-24T18:09:51.881Z,6.80
2019-01-24T18:12:24.117Z,6.80
2019-01-24T18:14:53.784Z,6.80
2019-01-24T18:17:24.076Z,6.80
2019-01-24T18:19:54.309Z,6.80
2019-01-24T18:22:26.039Z,6.80
2019-01-24T18:24:57.142Z,6.80
2019-01-24T18:27:27.251Z,6.80
2019-01-24T18:29:57.404Z,6.90
2019-01-24T18:32:29.246Z,6.80
2019-01-24T18:34:58.929Z,6.80
2019-01-24T18:37:28.868Z,6.80
2019-01-24T18:39:59.280Z,6.80
2019-01-24T18:42:29.964Z,6.80
2019-01-24T18:44:59.660Z,6.80
2019-01-24T18:47:30.604Z,6.90
2019-01-24T18:50:02.021Z,6.90
2019-01-24T18:52:33.308Z,6.90
2019-01-24T18:55:44.989Z,6.90
2019-01-24T18:58:15.420Z,6.80
2019-01-24T19:00:47.246Z,6.80
2019-01-24T19:03:18.006Z,6.90
2019-01-24T19:05:48.011Z,6.90
2019-01-24T19:08:19.900Z,6.90
2019-01-24T19:11:10.144Z,6.90
2019-01-24T19:13:39.891Z,6.90
2019-01-24T19:16:11.170Z,6.90
2019-01-24T19:18:41.173Z,6.90
2019-01-24T19:21:11.876Z,6.90
2019-01-24T19:23:42.202Z,6.90
2019-01-24T19:26:16.260Z,6.90
2019-01-24T19:28:47.107Z,6.90
2019-01-24T19:31:16.863Z,6.90
2019-01-24T19:33:47.029Z,6.90
2019-01-24T19:36:17.193Z,7.00
2019-01-24T19:38:53.058Z,7.00
2019-01-24T19:41:21.011Z,7.00
2019-01-24T19:43:51.714Z,7.00
2019-01-24T19:46:24.612Z,7.00
2019-01-24T19:48:56.978Z,7.00
2019-01-24T19:51:30.257Z,7.00
2019-01-24T19:54:00.330Z,7.10
2019-01-24T19:56:31.345Z,7.00
2019-01-24T19:59:01.051Z,7.00
2019-01-24T20:01:32.098Z,7.00
2019-01-24T20:04:03.549Z,7.00
2019-01-24T20:06:35.001Z,7.10
2019-01-24T20:09:08.831Z,7.10
2019-01-24T20:11:39.276Z,7.20
2019-01-24T20:14:10.115Z,7.20
2019-01-24T20:16:41.560Z,7.10
2019-01-24T20:19:23.292Z,7.10
2019-01-24T20:21:53.402Z,7.00
2019-01-24T20:24:23.495Z,7.00
2019-01-24T20:26:53.238Z,7.00
2019-01-24T20:29:22.946Z,7.00
2019-01-24T20:31:52.714Z,7.00
2019-01-24T20:34:24.249Z,7.10
2019-01-24T20:36:55.909Z,7.10
2019-01-24T20:39:30.174Z,7.20
2019-01-24T20:42:11.599Z,7.30
2019-01-24T20:44:44.843Z,7.30
2019-01-24T20:47:18.577Z,7.20
2019-01-24T20:49:48.948Z,7.30
2019-01-24T20:52:20.277Z,7.20
2019-01-24T20:54:50.842Z,7.00
2019-01-24T20:57:27.716Z,7.00
2019-01-24T21:00:02.239Z,7.00
2019-01-24T21:02:37.054Z,7.00
2019-01-24T21:05:10.783Z,7.00
2019-01-24T21:07:43.032Z,7.00
2019-01-24T21:10:20.228Z,7.10
2019-01-24T21:12:53.151Z,7.30
2019-01-24T21:15:25.174Z,7.20
2019-01-24T21:17:56.016Z,7.20
2019-01-24T21:20:31.197Z,7.20
2019-01-24T21:23:03.929Z,7.10
2019-01-24T21:25:59.983Z,7.10
2019-01-24T21:28:30.192Z,7.10
2019-01-24T21:31:02.397Z,7.10
2019-01-24T21:33:32.199Z,7.10
2019-01-24T21:36:01.936Z,7.10
2019-01-24T21:38:31.625Z,7.20
2019-01-24T21:41:04.565Z,7.20
2019-01-24T21:43:35.565Z,7.30
2019-01-24T21:46:08.093Z,7.40
2019-01-24T21:48:39.086Z,7.50
2019-01-24T21:51:11.332Z,7.50
2019-01-24T21:53:43.201Z,7.50
2019-01-24T21:56:18.114Z,7.50
2019-01-24T21:58:54.856Z,7.40
2019-01-24T22:01:46.919Z,7.30
2019-01-24T22:04:23.437Z,7.20
2019-01-24T22:06:57.480Z,7.20
2019-01-24T22:09:32.143Z,7.20
2019-01-24T22:12:07.623Z,7.20
2019-01-24T22:14:41.758Z,7.10
2019-01-24T22:17:18.723Z,7.20
2019-01-24T22:19:49.095Z,7.20
2019-01-24T22:22:46.634Z,7.20
2019-01-24T22:25:24.473Z,7.10
2019-01-24T22:28:00.180Z,7.10
2019-01-24T22:30:41.030Z,7.10
2019-01-24T22:33:13.426Z,7.10
2019-01-24T22:35:43.410Z,7.10
2019-01-24T22:38:19.684Z,7.10
2019-01-24T22:41:08.165Z,7.20
2019-01-24T22:43:41.195Z,7.20
2019-01-24T22:46:10.895Z,7.20
2019-01-24T22:48:43.624Z,7.10
2019-01-24T22:51:14.029Z,7.10
2019-01-24T22:53:44.493Z,7.10
2019-01-24T22:56:15.159Z,7.10
2019-01-24T22:58:44.909Z,7.10
2019-01-24T23:01:38.721Z,7.00
2019-01-24T23:04:15.351Z,7.00
2019-01-24T23:06:49.941Z,7.20
2019-01-24T23:09:21.582Z,7.30
2019-01-24T23:11:56.139Z,7.40
2019-01-24T23:14:28.088Z,7.30
2019-01-24T23:17:01.223Z,7.20
2019-01-24T23:19:32.423Z,7.20
2019-01-24T23:22:08.160Z,7.20
2019-01-24T23:24:38.839Z,7.20
2019-01-24T23:27:09.146Z,7.20
2019-01-24T23:29:39.187Z,7.20
2019-01-24T23:32:09.120Z,7.20
2019-01-24T23:34:40.257Z,7.10
2019-01-24T23:37:10.116Z,7.20
2019-01-24T23:39:39.893Z,7.20
2019-01-24T23:42:09.864Z,7.30
2019-01-24T23:44:40.684Z,7.40
2019-01-24T23:47:10.944Z,7.50
2019-01-24T23:49:40.660Z,7.40
2019-01-24T23:52:10.976Z,7.20
2019-01-24T23:54:41.064Z,7.10
2019-01-24T23:57:11.820Z,7.10
2019-01-24T23:59:42.757Z,6.90
